Time;durP1;ratioP1;P1;durP2;ratioP2;P2;SDS_P1;SDS_P2;PMS_P1;PMS_P2;Temp;Humidity;BMP_temperature;BMP_pressure;BME280_temperature;BME280_humidity;BME280_pressure;Samples;Min_cycle;Max_cycle;Signal;HPM_P1;HPM_P2
2021/12/24 00:01:58;;;;;;;31.87;17.63;;;3.20;99.90;;;;;;5076126;28;20184;-77
2021/12/24 00:04:25;;;;;;;34.17;17.87;;;3.30;99.90;;;;;;5083045;28;20231;-77
2021/12/24 00:06:52;;;;;;;33.00;17.73;;;3.30;99.90;;;;;;5086103;28;20172;-77
2021/12/24 00:09:24;;;;;;;32.13;18.23;;;3.40;99.90;;;;;;5073232;28;20664;-77
2021/12/24 00:11:51;;;;;;;30.00;18.30;;;3.40;99.90;;;;;;5067989;28;20180;-78
2021/12/24 00:14:18;;;;;;;28.90;17.30;;;3.40;99.90;;;;;;5086709;28;20676;-77
2021/12/24 00:16:52;;;;;;;30.57;18.23;;;3.50;99.90;;;;;;5073324;28;20185;-79
2021/12/24 00:19:26;;;;;;;28.93;16.63;;;3.50;99.90;;;;;;5079561;28;20560;-78
2021/12/24 00:35:30;;;;;;;25.77;17.00;;;3.70;99.90;;;;;;5093013;28;20172;-78
2021/12/24 00:38:01;;;;;;;27.47;16.63;;;3.70;99.90;;;;;;5082811;28;20531;-79
2021/12/24 00:40:38;;;;;;;27.60;16.87;;;3.70;99.90;;;;;;5074823;28;20176;-79
2021/12/24 00:43:05;;;;;;;24.03;15.97;;;3.80;99.90;;;;;;5074375;28;20508;-78
2021/12/24 00:45:33;;;;;;;25.03;16.40;;;3.80;99.90;;;;;;5076804;28;20314;-78
2021/12/24 00:48:02;;;;;;;26.37;16.00;;;3.80;99.90;;;;;;5072798;28;20635;-78
2021/12/24 00:50:31;;;;;;;24.87;16.17;;;3.80;99.90;;;;;;5072136;28;20248;-78
2021/12/24 00:55:02;;;;;;;24.07;15.27;;;3.90;99.90;;;;;;5075378;28;20199;-78
2021/12/24 00:55:50;;;;;;;26.30;16.30;;;3.90;99.90;;;;;;5089980;28;20176;-78
2021/12/24 00:58:15;;;;;;;27.77;16.00;;;3.80;99.90;;;;;;5081387;28;20199;-78
2021/12/24 01:00:42;;;;;;;23.77;16.13;;;3.80;99.90;;;;;;5073845;28;20177;-78
2021/12/24 01:03:11;;;;;;;25.67;16.07;;;3.90;99.90;;;;;;5075336;28;20254;-78
2021/12/24 01:05:37;;;;;;;24.83;15.90;;;3.80;99.90;;;;;;5078193;28;20184;-78
2021/12/24 01:08:05;;;;;;;27.50;16.33;;;3.90;99.90;;;;;;5084002;28;20200;-78
2021/12/24 01:10:42;;;;;;;28.07;16.37;;;3.90;99.90;;;;;;5079713;28;20168;-79
2021/12/24 01:13:07;;;;;;;26.83;16.17;;;3.90;99.90;;;;;;5083723;28;20212;-78
2021/12/24 01:15:36;;;;;;;26.13;16.40;;;3.90;99.90;;;;;;5081436;28;20273;-78
2021/12/24 01:18:12;;;;;;;28.67;17.43;;;3.90;99.90;;;;;;5080702;28;20307;-78
2021/12/24 01:21:01;;;;;;;27.47;16.23;;;3.90;99.90;;;;;;5092688;28;20188;-79
2021/12/24 01:23:36;;;;;;;26.33;16.30;;;3.90;99.90;;;;;;5074126;28;20249;-77
2021/12/24 01:26:07;;;;;;;26.83;16.00;;;3.90;99.90;;;;;;5063115;28;20244;-77
2021/12/24 01:29:01;;;;;;;22.83;14.97;;;4.00;99.90;;;;;;5074577;28;20290;-77
2021/12/24 01:44:58;;;;;;;24.37;14.33;;;4.00;99.90;;;;;;5091682;28;20187;-77
2021/12/24 01:47:24;;;;;;;23.67;15.10;;;4.00;99.90;;;;;;5081766;28;20253;-77
2021/12/24 01:49:50;;;;;;;20.83;14.60;;;4.10;99.90;;;;;;5075462;28;20552;-77
2021/12/24 01:52:17;;;;;;;20.60;14.20;;;4.00;99.90;;;;;;5080569;28;20264;-78
2021/12/24 01:54:46;;;;;;;21.40;13.83;;;4.10;99.90;;;;;;5075709;28;20178;-77
2021/12/24 01:57:12;;;;;;;19.73;13.97;;;4.00;99.90;;;;;;5081500;28;20272;-79
2021/12/24 01:59:40;;;;;;;20.93;14.13;;;4.00;99.90;;;;;;5074312;28;20774;-77
2021/12/24 02:02:06;;;;;;;22.13;14.00;;;4.10;99.90;;;;;;5075125;28;20175;-77
2021/12/24 02:04:33;;;;;;;20.63;13.50;;;4.00;99.90;;;;;;5074400;28;20194;-77
2021/12/24 02:06:59;;;;;;;19.73;13.67;;;4.10;99.90;;;;;;5078846;28;20188;-77
2021/12/24 02:09:24;;;;;;;22.60;13.70;;;4.10;99.90;;;;;;5073061;28;20212;-77
2021/12/24 02:11:52;;;;;;;20.43;14.17;;;4.20;99.90;;;;;;5075001;28;20175;-78
2021/12/24 02:14:21;;;;;;;20.67;14.40;;;4.20;99.90;;;;;;5073470;28;20169;-78
2021/12/24 02:30:10;;;;;;;18.13;12.60;;;4.20;99.90;;;;;;5092697;28;20207;-78
2021/12/24 02:32:41;;;;;;;17.20;12.40;;;4.20;99.90;;;;;;5075269;28;20172;-78
2021/12/24 02:35:07;;;;;;;17.40;12.37;;;4.20;99.90;;;;;;5068076;28;20169;-79
2021/12/24 02:37:32;;;;;;;17.60;12.17;;;4.20;99.90;;;;;;5087309;28;20172;-78
2021/12/24 02:39:58;;;;;;;16.20;11.63;;;4.20;99.90;;;;;;5079253;28;20196;-78
2021/12/24 02:42:24;;;;;;;17.97;12.70;;;4.20;99.90;;;;;;5073572;28;20191;-78
2021/12/24 02:44:51;;;;;;;16.80;12.53;;;4.30;99.90;;;;;;5076483;28;20226;-77
2021/12/24 02:55:00;;;;;;;17.43;12.57;;;4.30;99.90;;;;;;5092522;28;20228;-78
2021/12/24 02:57:28;;;;;;;15.47;12.40;;;4.30;99.90;;;;;;5084367;28;20266;-77
2021/12/24 03:00:06;;;;;;;16.87;12.10;;;4.40;99.90;;;;;;5074037;28;20618;-78
2021/12/24 03:02:38;;;;;;;16.57;12.77;;;4.30;99.90;;;;;;5074876;28;20180;-77
2021/12/24 03:05:05;;;;;;;19.07;13.23;;;4.40;99.90;;;;;;5082543;28;20169;-77
2021/12/24 03:07:31;;;;;;;16.10;11.93;;;4.30;99.90;;;;;;5076916;28;20180;-77
2021/12/24 03:09:59;;;;;;;17.30;13.07;;;4.50;99.90;;;;;;5095148;28;20202;-77
2021/12/24 03:12:27;;;;;;;18.80;12.90;;;4.40;99.90;;;;;;5105976;28;20198;-77
2021/12/24 03:14:53;;;;;;;19.33;14.03;;;4.40;99.90;;;;;;5105632;28;20168;-77
2021/12/24 03:17:23;;;;;;;19.50;14.37;;;4.30;99.90;;;;;;5105030;28;20184;-77
2021/12/24 03:19:48;;;;;;;16.87;13.03;;;4.40;99.90;;;;;;5103177;28;20199;-77
2021/12/24 03:24:52;;;;;;;21.90;14.00;;;4.40;99.90;;;;;;5113502;28;20182;-77
2021/12/24 03:27:17;;;;;;;18.80;13.40;;;4.40;99.90;;;;;;5099582;28;20180;-77
2021/12/24 03:29:43;;;;;;;17.83;12.80;;;4.50;99.90;;;;;;5109147;28;20212;-77
2021/12/24 03:32:09;;;;;;;19.23;14.47;;;4.50;99.90;;;;;;5105673;28;20180;-76
2021/12/24 03:34:35;;;;;;;17.13;12.50;;;4.50;99.90;;;;;;5114307;28;20199;-78
2021/12/24 03:37:03;;;;;;;17.23;12.07;;;4.50;99.90;;;;;;5107953;28;20180;-77
2021/12/24 03:39:31;;;;;;;17.00;12.30;;;4.50;99.90;;;;;;5098405;28;20264;-77
2021/12/24 03:41:57;;;;;;;15.80;11.77;;;4.50;99.90;;;;;;5105105;28;20175;-77
2021/12/24 03:44:31;;;;;;;13.83;10.77;;;4.50;99.90;;;;;;5104030;28;20161;-77
2021/12/24 03:47:09;;;;;;;16.23;11.83;;;4.50;99.90;;;;;;5089489;28;20176;-77
2021/12/24 03:49:40;;;;;;;16.50;11.40;;;4.50;99.90;;;;;;5086705;28;20196;-78
2021/12/24 03:54:59;;;;;;;15.63;12.03;;;4.50;99.90;;;;;;5092598;28;20229;-78
2021/12/24 03:57:39;;;;;;;16.83;12.07;;;4.50;99.90;;;;;;5084028;28;20164;-77
2021/12/24 04:00:28;;;;;;;18.00;12.80;;;4.50;99.90;;;;;;5095612;28;20195;-77
2021/12/24 04:03:13;;;;;;;16.60;11.57;;;4.50;99.90;;;;;;5094221;28;20172;-77
2021/12/24 04:05:41;;;;;;;17.20;12.37;;;4.50;99.90;;;;;;5093711;28;20249;-77
2021/12/24 04:08:25;;;;;;;17.90;12.97;;;4.40;99.90;;;;;;5090410;28;20214;-77
2021/12/24 04:11:29;;;;;;;19.00;13.07;;;4.50;99.90;;;;;;5094323;28;20524;-77
2021/12/24 04:13:55;;;;;;;20.20;13.43;;;4.50;99.90;;;;;;5082382;28;20238;-77
2021/12/24 04:16:20;;;;;;;20.90;13.17;;;4.50;99.90;;;;;;5076886;28;20194;-78
2021/12/24 04:19:21;;;;;;;18.93;12.53;;;4.50;99.90;;;;;;5086798;28;20207;-77
2021/12/24 04:24:54;;;;;;;19.23;12.83;;;4.50;99.90;;;;;;5090160;28;20678;-77
2021/12/24 04:27:25;;;;;;;18.57;11.97;;;4.50;99.90;;;;;;5097472;28;20191;-77
2021/12/24 04:29:59;;;;;;;18.10;12.80;;;4.50;99.90;;;;;;5076899;28;20207;-77
2021/12/24 04:36:15;;;;;;;16.10;11.87;;;4.50;99.90;;;;;;5096857;28;20509;-77
2021/12/24 04:52:02;;;;;;;16.53;11.77;;;4.50;99.90;;;;;;5094828;28;20188;-77
2021/12/24 05:02:57;;;;;;;17.17;11.83;;;4.50;99.90;;;;;;5097345;28;20185;-78
2021/12/24 05:05:36;;;;;;;18.93;11.90;;;4.60;99.90;;;;;;5089443;28;20584;-78
2021/12/24 05:10:36;;;;;;;18.13;11.23;;;4.60;99.90;;;;;;5096362;28;20172;-78
2021/12/24 05:13:01;;;;;;;16.53;11.50;;;4.60;99.90;;;;;;5078479;28;20172;-78
2021/12/24 05:15:39;;;;;;;18.37;11.97;;;4.70;99.90;;;;;;5088378;28;20255;-78
2021/12/24 05:18:37;;;;;;;16.00;11.20;;;4.70;99.90;;;;;;5083027;28;20250;-78
2021/12/24 05:21:34;;;;;;;16.43;11.30;;;4.70;99.90;;;;;;5085931;28;20634;-78
2021/12/24 05:24:03;;;;;;;15.60;10.90;;;4.70;99.90;;;;;;5076753;28;20263;-78
2021/12/24 05:26:29;;;;;;;16.07;11.10;;;4.70;99.90;;;;;;5074010;28;20544;-78
2021/12/24 05:28:59;;;;;;;17.37;12.20;;;4.60;99.90;;;;;;5076101;28;20299;-78
2021/12/24 05:31:24;;;;;;;17.10;12.33;;;4.60;99.90;;;;;;5079025;28;20262;-78
2021/12/24 05:33:51;;;;;;;19.93;14.37;;;4.60;99.90;;;;;;5080798;28;20176;-78
2021/12/24 05:36:17;;;;;;;20.13;14.00;;;4.50;99.90;;;;;;5076405;28;20156;-78
2021/12/24 05:38:46;;;;;;;21.13;15.23;;;4.50;99.90;;;;;;5082531;28;20195;-78
2021/12/24 05:41:13;;;;;;;23.90;15.90;;;4.50;99.90;;;;;;5075278;28;20171;-78
2021/12/24 05:43:39;;;;;;;24.53;15.50;;;4.50;99.90;;;;;;5075761;28;20661;-78
2021/12/24 05:46:05;;;;;;;24.03;15.90;;;4.50;99.90;;;;;;5077968;28;20176;-78
2021/12/24 05:48:39;;;;;;;20.97;14.10;;;4.40;99.90;;;;;;5079672;28;20259;-78
2021/12/24 05:51:10;;;;;;;23.17;15.97;;;4.40;99.90;;;;;;5085281;28;20219;-78
2021/12/24 05:53:59;;;;;;;22.23;15.03;;;4.40;99.90;;;;;;5070143;28;20179;-78
2021/12/24 05:56:28;;;;;;;22.07;13.63;;;4.40;99.90;;;;;;5076412;28;20527;-78
2021/12/24 05:59:05;;;;;;;21.50;13.20;;;4.40;99.90;;;;;;5076312;28;20195;-78
2021/12/24 06:01:35;;;;;;;16.97;10.57;;;4.30;99.90;;;;;;5075173;28;20186;-78
2021/12/24 06:04:00;;;;;;;18.10;11.83;;;4.30;99.90;;;;;;5082066;28;20624;-77
2021/12/24 06:06:26;;;;;;;19.83;11.73;;;4.20;99.90;;;;;;5083149;28;20179;-78
2021/12/24 06:08:52;;;;;;;18.23;11.80;;;4.10;99.90;;;;;;5075798;28;20199;-78
2021/12/24 06:11:18;;;;;;;17.40;10.97;;;4.10;99.90;;;;;;5079718;28;20169;-77
2021/12/24 06:13:43;;;;;;;16.53;9.73;;;4.10;99.90;;;;;;5074444;28;20183;-77
2021/12/24 06:16:10;;;;;;;16.43;9.07;;;4.10;99.90;;;;;;5082713;28;20180;-77
2021/12/24 06:18:40;;;;;;;18.13;10.13;;;4.00;99.90;;;;;;5087633;28;20192;-77
2021/12/24 06:21:06;;;;;;;15.73;9.73;;;4.00;99.90;;;;;;5075107;28;20180;-78
2021/12/24 06:23:33;;;;;;;18.13;10.17;;;4.00;99.90;;;;;;5074798;28;20176;-78
2021/12/24 06:25:59;;;;;;;14.20;8.20;;;3.90;99.90;;;;;;5074397;28;20195;-77
2021/12/24 06:28:26;;;;;;;12.20;7.43;;;3.90;99.90;;;;;;5083697;28;20211;-77
2021/12/24 06:30:53;;;;;;;12.60;6.73;;;3.90;99.90;;;;;;5067407;28;20179;-77
2021/12/24 06:33:18;;;;;;;11.10;6.80;;;3.70;99.90;;;;;;5074133;28;20168;-77
2021/12/24 06:35:45;;;;;;;9.43;5.93;;;3.60;99.90;;;;;;5062604;28;20218;-77
2021/12/24 06:38:11;;;;;;;11.30;6.60;;;3.60;99.90;;;;;;5074726;28;20239;-77
2021/12/24 06:40:37;;;;;;;9.00;5.87;;;3.50;99.90;;;;;;5074541;28;20176;-77
2021/12/24 06:43:05;;;;;;;9.80;5.33;;;3.50;99.90;;;;;;5086815;28;20175;-78
2021/12/24 06:45:32;;;;;;;9.83;5.40;;;3.50;99.90;;;;;;5083682;28;20605;-78
2021/12/24 06:48:00;;;;;;;8.67;5.13;;;3.50;99.90;;;;;;5060323;28;20513;-78
2021/12/24 06:50:26;;;;;;;9.17;5.70;;;3.40;99.90;;;;;;5078619;28;20188;-77
2021/12/24 06:52:53;;;;;;;7.33;5.40;;;3.40;99.90;;;;;;5081492;28;20182;-78
2021/12/24 06:55:19;;;;;;;7.70;5.10;;;3.50;99.90;;;;;;5075260;28;20633;-77
2021/12/24 06:57:46;;;;;;;7.43;5.10;;;3.50;99.90;;;;;;5078733;28;20172;-77
2021/12/24 07:00:16;;;;;;;7.10;5.10;;;3.40;99.90;;;;;;5065106;28;20206;-77
2021/12/24 07:02:43;;;;;;;8.33;5.13;;;3.30;99.90;;;;;;5080711;28;20237;-78
2021/12/24 07:05:09;;;;;;;7.77;5.83;;;3.20;99.90;;;;;;5077512;28;20187;-77
2021/12/24 07:07:35;;;;;;;8.80;5.70;;;3.00;99.90;;;;;;5088489;28;20181;-77
2021/12/24 07:10:01;;;;;;;9.60;6.57;;;2.90;99.90;;;;;;5073960;28;20594;-77
2021/12/24 07:12:27;;;;;;;7.63;5.73;;;2.80;99.90;;;;;;5077782;28;20535;-77
2021/12/24 07:14:52;;;;;;;8.00;5.63;;;2.80;99.90;;;;;;5083015;28;20626;-77
2021/12/24 07:17:18;;;;;;;9.07;6.67;;;2.70;99.90;;;;;;5077599;28;20254;-78
2021/12/24 07:19:44;;;;;;;9.33;6.37;;;2.60;99.90;;;;;;5087220;28;20192;-77
2021/12/24 07:22:10;;;;;;;8.57;5.93;;;2.60;99.90;;;;;;5070005;28;20180;-77
2021/12/24 07:24:36;;;;;;;10.23;6.57;;;2.60;99.90;;;;;;5083615;28;20175;-77
2021/12/24 07:27:03;;;;;;;10.77;6.63;;;2.60;99.90;;;;;;5075933;28;20221;-77
2021/12/24 07:29:32;;;;;;;10.93;7.17;;;2.50;99.90;;;;;;5057852;28;20671;-77
2021/12/24 07:31:58;;;;;;;10.80;7.10;;;2.50;99.90;;;;;;5080575;28;20606;-78
2021/12/24 07:34:24;;;;;;;11.67;7.03;;;2.70;99.90;;;;;;5082991;28;20182;-78
2021/12/24 07:36:49;;;;;;;10.27;7.50;;;2.90;99.90;;;;;;5094078;28;20263;-78
2021/12/24 07:39:16;;;;;;;8.90;6.90;;;3.00;99.90;;;;;;5084544;28;20203;-78
2021/12/24 07:41:41;;;;;;;9.10;7.17;;;3.10;99.90;;;;;;5080542;28;20214;-78
2021/12/24 07:44:08;;;;;;;10.43;7.03;;;2.90;99.90;;;;;;5093312;28;20172;-78
2021/12/24 07:46:44;;;;;;;8.57;6.13;;;2.60;99.90;;;;;;5079737;28;20171;-78
2021/12/24 07:49:30;;;;;;;10.03;6.60;;;2.40;99.90;;;;;;5081408;28;20218;-78
2021/12/24 07:52:08;;;;;;;9.80;6.30;;;2.50;99.90;;;;;;5078317;28;20184;-78
2021/12/24 07:54:42;;;;;;;9.60;6.90;;;2.70;99.90;;;;;;5090298;28;20185;-78
2021/12/24 07:57:11;;;;;;;9.00;6.53;;;2.60;99.90;;;;;;5077420;28;20200;-77
2021/12/24 07:59:39;;;;;;;9.43;6.60;;;2.60;99.90;;;;;;5076585;28;20282;-78
2021/12/24 08:02:16;;;;;;;9.27;6.63;;;2.60;99.90;;;;;;5078428;28;20173;-78
2021/12/24 08:04:46;;;;;;;9.77;6.60;;;2.60;99.90;;;;;;5074502;28;20655;-78
2021/12/24 08:07:14;;;;;;;9.47;5.63;;;2.40;99.90;;;;;;5091827;28;20199;-78
2021/12/24 08:09:40;;;;;;;8.33;5.47;;;2.40;99.90;;;;;;5088431;28;20235;-78
2021/12/24 08:12:11;;;;;;;6.70;5.10;;;2.10;99.90;;;;;;5089786;28;20192;-78
2021/12/24 08:14:37;;;;;;;6.87;5.40;;;2.20;99.90;;;;;;5077180;28;20219;-78
2021/12/24 08:17:04;;;;;;;10.33;6.30;;;2.40;99.90;;;;;;5089137;28;20172;-78
2021/12/24 08:19:30;;;;;;;8.77;6.23;;;2.60;99.90;;;;;;5069709;28;20244;-78
2021/12/24 08:21:56;;;;;;;10.43;6.00;;;2.60;99.90;;;;;;5077443;28;20180;-78
2021/12/24 08:24:22;;;;;;;7.77;5.33;;;2.60;99.90;;;;;;5067775;28;20196;-78
2021/12/24 08:26:51;;;;;;;9.80;6.13;;;2.70;99.90;;;;;;5082230;28;20603;-78
2021/12/24 08:29:17;;;;;;;7.40;5.90;;;2.70;99.90;;;;;;5076708;28;20215;-78
2021/12/24 08:31:43;;;;;;;7.53;5.90;;;2.50;99.90;;;;;;5076444;28;20172;-78
2021/12/24 08:34:10;;;;;;;10.33;5.93;;;2.20;99.90;;;;;;5082478;28;20264;-78
2021/12/24 08:36:37;;;;;;;8.00;5.60;;;2.20;99.90;;;;;;5076124;28;20176;-78
2021/12/24 08:39:04;;;;;;;6.80;5.10;;;2.20;99.90;;;;;;5075949;28;20294;-78
2021/12/24 08:41:29;;;;;;;9.87;6.00;;;2.10;99.90;;;;;;5081397;28;20176;-78
2021/12/24 08:43:55;;;;;;;10.83;6.00;;;2.00;99.90;;;;;;5075678;28;20543;-77
2021/12/24 08:46:21;;;;;;;8.67;5.77;;;2.00;99.90;;;;;;5080486;28;20601;-77
2021/12/24 08:48:47;;;;;;;10.10;5.97;;;2.00;99.90;;;;;;5076371;28;20295;-77
2021/12/24 08:51:13;;;;;;;10.70;6.33;;;2.10;99.90;;;;;;5088135;28;20279;-78
2021/12/24 08:53:39;;;;;;;9.30;6.50;;;2.10;99.90;;;;;;5081002;28;20215;-78
2021/12/24 08:56:06;;;;;;;10.00;5.90;;;2.10;99.90;;;;;;5085729;28;20172;-78
2021/12/24 08:58:36;;;;;;;9.70;6.73;;;2.00;99.90;;;;;;5077177;28;20192;-78
2021/12/24 09:01:01;;;;;;;7.93;6.40;;;2.20;99.90;;;;;;5087285;28;20169;-78
2021/12/24 09:03:27;;;;;;;8.90;6.00;;;2.20;99.90;;;;;;5083740;28;20252;-76
2021/12/24 09:05:54;;;;;;;7.83;6.37;;;2.10;99.90;;;;;;5079113;28;20177;-76
2021/12/24 09:08:20;;;;;;;8.70;6.53;;;2.10;99.90;;;;;;5076582;28;20263;-77
2021/12/24 09:10:45;;;;;;;8.63;6.47;;;2.20;99.90;;;;;;5076055;28;20207;-77
2021/12/24 09:13:11;;;;;;;9.90;6.80;;;2.30;99.90;;;;;;5081069;28;20222;-77
2021/12/24 09:15:39;;;;;;;9.23;6.80;;;2.50;99.90;;;;;;5091903;28;20171;-77
2021/12/24 09:18:04;;;;;;;8.93;6.83;;;2.70;99.90;;;;;;5075375;28;20177;-77
2021/12/24 09:20:40;;;;;;;7.73;6.30;;;2.50;99.90;;;;;;5076285;28;20179;-77
2021/12/24 09:23:07;;;;;;;8.67;6.70;;;2.10;99.90;;;;;;5086832;28;20531;-77
2021/12/24 09:25:33;;;;;;;8.77;6.63;;;2.00;99.90;;;;;;5076682;28;20177;-77
2021/12/24 09:28:00;;;;;;;8.97;7.30;;;1.90;99.90;;;;;;5072590;28;20175;-77
2021/12/24 09:30:27;;;;;;;10.03;7.40;;;1.90;99.90;;;;;;5075505;28;20647;-78
2021/12/24 09:32:53;;;;;;;11.17;7.70;;;1.70;99.90;;;;;;5078012;28;20254;-78
2021/12/24 09:35:20;;;;;;;10.07;7.57;;;1.60;99.90;;;;;;5081888;28;20646;-78
2021/12/24 09:37:47;;;;;;;13.00;8.60;;;1.60;99.90;;;;;;5071869;28;20195;-77
2021/12/24 09:40:15;;;;;;;11.57;8.53;;;1.60;99.90;;;;;;5080744;28;20666;-77
2021/12/24 09:42:44;;;;;;;10.47;8.60;;;1.60;99.90;;;;;;5083256;28;20553;-77
2021/12/24 09:45:11;;;;;;;12.60;8.10;;;1.60;99.90;;;;;;5069024;28;20278;-78
2021/12/24 09:47:37;;;;;;;10.10;8.20;;;1.50;99.90;;;;;;5079286;28;20196;-78
2021/12/24 09:50:06;;;;;;;12.90;8.60;;;1.50;99.90;;;;;;5092318;28;20200;-77
2021/12/24 09:52:32;;;;;;;12.33;8.07;;;1.40;99.90;;;;;;5074936;28;20257;-77
2021/12/24 09:55:07;;;;;;;11.63;8.63;;;1.30;99.90;;;;;;5084568;28;20226;-77
2021/12/24 09:57:33;;;;;;;12.73;8.77;;;1.20;99.90;;;;;;5089208;28;20194;-77
2021/12/24 09:59:58;;;;;;;11.23;8.03;;;1.20;99.90;;;;;;5075307;28;20199;-77
2021/12/24 10:02:46;;;;;;;11.90;8.43;;;1.30;99.90;;;;;;5083975;28;20180;-77
2021/12/24 10:05:42;;;;;;;10.63;7.70;;;1.20;99.90;;;;;;5071027;28;20203;-77
2021/12/24 10:08:21;;;;;;;11.90;8.00;;;1.10;99.90;;;;;;5069113;28;20182;-78
2021/12/24 10:10:51;;;;;;;10.00;7.37;;;1.00;99.90;;;;;;5069530;28;20179;-78
2021/12/24 10:13:38;;;;;;;10.73;7.60;;;1.10;99.90;;;;;;5078238;28;20177;-78
2021/12/24 10:16:09;;;;;;;11.77;8.00;;;1.00;99.90;;;;;;5073472;28;20168;-78
2021/12/24 10:18:44;;;;;;;10.40;7.17;;;1.00;99.90;;;;;;5078959;28;20589;-78
2021/12/24 10:21:23;;;;;;;10.67;7.40;;;0.90;99.90;;;;;;5086264;28;20188;-77
2021/12/24 10:24:13;;;;;;;11.60;8.37;;;1.00;99.90;;;;;;5084650;28;20551;-78
2021/12/24 10:26:45;;;;;;;12.90;8.63;;;1.00;99.90;;;;;;5068105;28;20208;-77
2021/12/24 10:29:16;;;;;;;11.77;8.17;;;1.00;99.90;;;;;;5059312;28;20226;-77
2021/12/24 10:31:52;;;;;;;12.87;8.80;;;1.00;99.90;;;;;;5067456;28;20165;-77
2021/12/24 10:34:24;;;;;;;13.20;9.10;;;1.00;99.90;;;;;;5075315;28;20187;-77
2021/12/24 10:36:54;;;;;;;13.43;8.90;;;1.00;99.90;;;;;;5083546;28;20184;-78
2021/12/24 10:39:23;;;;;;;12.70;9.00;;;1.00;99.90;;;;;;5096036;28;20209;-78
2021/12/24 10:41:50;;;;;;;11.13;8.50;;;0.90;99.90;;;;;;5078906;28;20176;-77
2021/12/24 10:44:17;;;;;;;13.30;9.60;;;0.90;99.90;;;;;;5078523;28;20175;-78
2021/12/24 10:47:04;;;;;;;13.10;9.20;;;0.90;99.90;;;;;;5080823;28;20181;-77
2021/12/24 10:52:57;;;;;;;15.27;10.47;;;1.00;99.90;;;;;;5099291;28;20183;-77
2021/12/24 10:55:10;;;;;;;13.57;10.00;;;1.00;99.90;;;;;;5093522;28;20588;-77
2021/12/24 10:57:37;;;;;;;14.90;10.40;;;1.10;99.90;;;;;;5078538;28;20611;-77
2021/12/24 11:00:20;;;;;;;13.67;9.70;;;1.10;99.90;;;;;;5091092;28;20204;-77
2021/12/24 11:03:27;;;;;;;13.37;10.00;;;1.10;99.90;;;;;;5078233;28;20184;-78
2021/12/24 11:05:55;;;;;;;12.80;9.30;;;1.30;99.90;;;;;;5097188;28;20619;-78
2021/12/24 11:08:24;;;;;;;12.70;8.83;;;1.30;99.90;;;;;;5077805;28;20543;-77
2021/12/24 11:10:57;;;;;;;12.90;9.30;;;1.40;99.90;;;;;;5078092;28;20207;-77
2021/12/24 11:13:31;;;;;;;14.63;9.40;;;1.50;99.90;;;;;;5086170;28;20188;-77
2021/12/24 11:15:59;;;;;;;11.70;8.30;;;1.40;99.90;;;;;;5073238;28;20171;-77
2021/12/24 11:19:12;;;;;;;12.10;8.40;;;1.50;99.90;;;;;;5086551;28;20226;-77
2021/12/24 11:21:38;;;;;;;11.97;8.77;;;1.40;99.90;;;;;;5079334;28;20255;-77
2021/12/24 11:24:04;;;;;;;11.60;8.57;;;1.40;99.90;;;;;;5076128;28;20204;-77
2021/12/24 11:26:40;;;;;;;12.43;8.80;;;1.40;99.90;;;;;;5084296;28;20172;-77
2021/12/24 11:29:05;;;;;;;10.90;8.00;;;1.40;99.90;;;;;;5078943;28;20199;-77
2021/12/24 11:31:33;;;;;;;11.87;8.20;;;1.40;99.90;;;;;;5077577;28;20209;-77
2021/12/24 11:33:59;;;;;;;11.60;9.20;;;1.40;99.90;;;;;;5084505;28;20173;-77
2021/12/24 11:36:29;;;;;;;12.00;8.20;;;1.30;99.90;;;;;;5081561;28;20184;-77
2021/12/24 11:38:58;;;;;;;13.50;9.03;;;1.40;99.90;;;;;;5077097;28;20201;-77
2021/12/24 11:41:28;;;;;;;13.33;9.87;;;1.50;99.90;;;;;;5077394;28;20183;-77
2021/12/24 11:43:55;;;;;;;14.50;9.83;;;1.50;99.90;;;;;;5087700;28;20658;-77
2021/12/24 11:46:24;;;;;;;13.20;9.63;;;1.50;99.90;;;;;;5084977;28;20649;-77
2021/12/24 11:48:51;;;;;;;15.43;10.83;;;1.50;99.90;;;;;;5070955;28;20214;-77
2021/12/24 11:51:25;;;;;;;17.07;10.80;;;1.50;99.90;;;;;;5077027;28;20192;-77
2021/12/24 11:53:57;;;;;;;15.63;11.33;;;1.50;99.90;;;;;;5090482;28;20176;-77
2021/12/24 11:56:23;;;;;;;19.27;12.33;;;1.50;99.90;;;;;;5073270;28;20164;-77
2021/12/24 11:58:53;;;;;;;19.13;12.93;;;1.50;99.90;;;;;;5080806;28;20217;-77
2021/12/24 12:01:21;;;;;;;21.23;12.97;;;1.40;99.90;;;;;;5089623;28;20168;-77
2021/12/24 12:03:51;;;;;;;22.03;14.07;;;1.40;99.90;;;;;;5096499;28;20266;-77
2021/12/24 12:06:17;;;;;;;22.27;13.93;;;1.30;99.90;;;;;;5099512;28;20194;-78
2021/12/24 12:08:44;;;;;;;21.57;13.40;;;1.20;99.90;;;;;;5088731;28;20678;-78
2021/12/24 12:11:21;;;;;;;21.43;14.03;;;1.20;99.90;;;;;;5094778;28;20225;-77
2021/12/24 12:13:56;;;;;;;24.63;14.67;;;1.20;99.90;;;;;;5093999;28;20168;-77
2021/12/24 12:16:40;;;;;;;23.33;14.37;;;1.10;99.90;;;;;;5096762;28;20184;-77
2021/12/24 12:19:21;;;;;;;21.87;13.77;;;1.10;99.90;;;;;;5090475;28;20275;-78
2021/12/24 12:22:32;;;;;;;24.07;15.07;;;1.10;99.90;;;;;;5095462;28;20266;-77
2021/12/24 12:25:12;;;;;;;24.00;14.37;;;1.00;99.90;;;;;;5092947;28;20187;-77
2021/12/24 12:28:07;;;;;;;19.70;13.37;;;1.30;99.90;;;;;;5103382;28;20170;-77
2021/12/24 12:30:53;;;;;;;22.33;14.33;;;1.30;99.90;;;;;;5095552;28;20261;-78
2021/12/24 12:33:32;;;;;;;23.30;13.67;;;1.30;99.90;;;;;;5093319;28;20206;-79
2021/12/24 12:36:02;;;;;;;24.00;14.60;;;1.30;99.90;;;;;;5099291;28;20176;-78
2021/12/24 12:38:33;;;;;;;23.57;14.27;;;1.20;99.90;;;;;;5083841;28;20226;-78
2021/12/24 12:41:33;;;;;;;22.07;14.67;;;1.20;99.90;;;;;;5088748;28;20165;-78
2021/12/24 12:44:11;;;;;;;23.50;14.93;;;1.10;99.90;;;;;;5091651;28;20175;-77
2021/12/24 12:46:41;;;;;;;25.00;14.87;;;1.10;99.90;;;;;;5091142;28;20172;-77
2021/12/24 12:49:32;;;;;;;24.33;15.93;;;1.10;99.90;;;;;;5083013;28;20233;-77
2021/12/24 12:52:11;;;;;;;23.07;15.00;;;1.20;99.90;;;;;;5075747;28;20195;-77
2021/12/24 12:54:44;;;;;;;24.50;15.57;;;1.20;99.90;;;;;;5073399;28;20554;-77
2021/12/24 12:57:23;;;;;;;26.10;15.80;;;1.30;99.90;;;;;;5077362;28;20172;-77
2021/12/24 13:00:07;;;;;;;24.03;15.23;;;1.20;99.90;;;;;;5090494;28;20203;-77
2021/12/24 13:03:07;;;;;;;24.80;15.37;;;1.10;99.90;;;;;;5071945;28;20263;-78
2021/12/24 13:05:42;;;;;;;24.83;16.03;;;1.30;99.90;;;;;;5071998;28;20204;-78
2021/12/24 13:08:49;;;;;;;28.43;16.43;;;1.30;99.90;;;;;;5069732;28;20180;-77
2021/12/24 13:11:20;;;;;;;26.10;17.00;;;1.30;99.90;;;;;;5075559;28;20531;-77
2021/12/24 13:14:02;;;;;;;24.80;16.70;;;1.40;99.90;;;;;;5078574;28;20182;-77
2021/12/24 13:16:52;;;;;;;25.87;16.17;;;1.40;99.90;;;;;;5094706;28;20181;-78
2021/12/24 13:19:44;;;;;;;27.43;17.97;;;1.60;99.90;;;;;;5076350;28;20615;-77
2021/12/24 13:24:56;;;;;;;30.73;17.77;;;1.70;99.90;;;;;;5072024;28;20578;-77
2021/12/24 13:27:24;;;;;;;25.97;16.83;;;1.70;99.90;;;;;;5093189;28;20266;-77
2021/12/24 13:30:22;;;;;;;25.53;15.90;;;1.70;99.90;;;;;;5083249;28;20196;-77
2021/12/24 13:32:55;;;;;;;28.77;17.17;;;1.70;99.90;;;;;;5091491;28;20176;-77
2021/12/24 13:35:28;;;;;;;26.90;17.37;;;1.70;99.90;;;;;;5080825;28;20184;-77
2021/12/24 13:37:55;;;;;;;32.07;17.13;;;1.70;99.90;;;;;;5078958;28;20176;-77
2021/12/24 13:40:28;;;;;;;26.40;16.63;;;1.80;99.90;;;;;;5079136;28;20203;-77
2021/12/24 13:43:01;;;;;;;27.33;17.17;;;1.80;99.90;;;;;;5075782;28;20171;-77
2021/12/24 13:45:32;;;;;;;26.40;16.17;;;1.70;99.90;;;;;;5081727;28;20263;-77
2021/12/24 13:48:23;;;;;;;25.77;16.47;;;1.70;99.90;;;;;;5081734;28;20636;-77
2021/12/24 13:56:43;;;;;;;28.17;17.93;;;1.70;99.90;;;;;;5089497;28;20270;-78
2021/12/24 13:59:23;;;;;;;27.37;16.87;;;1.80;99.90;;;;;;5075014;28;20336;-78
2021/12/24 14:01:49;;;;;;;27.10;15.97;;;1.70;99.90;;;;;;5077963;28;20175;-78
2021/12/24 14:04:18;;;;;;;28.73;16.73;;;1.60;99.90;;;;;;5073278;28;20541;-78
2021/12/24 14:06:46;;;;;;;29.27;16.30;;;1.60;99.90;;;;;;5090589;28;20700;-78
2021/12/24 14:09:19;;;;;;;28.33;16.33;;;1.50;99.90;;;;;;5085503;28;20245;-78
2021/12/24 14:11:47;;;;;;;28.17;16.43;;;1.50;99.90;;;;;;5083151;28;20176;-78
2021/12/24 14:14:20;;;;;;;26.90;16.97;;;1.60;99.90;;;;;;5066001;28;20178;-78
2021/12/24 14:19:28;;;;;;;31.87;17.73;;;1.60;99.90;;;;;;5094708;28;20227;-78
2021/12/24 14:22:06;;;;;;;28.97;16.07;;;1.50;99.90;;;;;;5080672;28;20240;-78
2021/12/24 14:24:36;;;;;;;30.53;16.53;;;1.50;99.90;;;;;;5075146;28;20187;-78
2021/12/24 14:27:07;;;;;;;31.50;18.47;;;1.50;99.90;;;;;;5075920;28;20176;-78
2021/12/24 14:29:38;;;;;;;33.40;18.03;;;1.60;99.90;;;;;;5081646;28;20227;-78
2021/12/24 14:32:13;;;;;;;34.17;18.47;;;1.60;99.90;;;;;;5075254;28;20658;-78
2021/12/24 14:34:43;;;;;;;35.23;18.03;;;1.50;99.90;;;;;;5074902;28;20576;-78
2021/12/24 14:37:23;;;;;;;34.27;18.50;;;1.60;99.90;;;;;;5076996;28;20175;-78
2021/12/24 14:40:01;;;;;;;28.73;16.83;;;1.60;99.90;;;;;;5073488;28;20196;-77
2021/12/24 14:42:38;;;;;;;32.13;17.03;;;1.60;99.90;;;;;;5073098;28;20200;-76
2021/12/24 14:45:35;;;;;;;31.77;17.13;;;1.60;99.90;;;;;;5080352;28;20634;-76